Time;durP1;ratioP1;P1;durP2;ratioP2;P2;SDS_P1;SDS_P2;PMS_P1;PMS_P2;Temp;Humidity;BMP_temperature;BMP_pressure;BME280_temperature;BME280_humidity;BME280_pressure;Samples;Min_cycle;Max_cycle;Signal;HPM_P1;HPM_P2
2021/04/06 02:45:44;;;;;;;1.95;1.58;;;-0.10;99.90;;;;;;5722232;23;87849;-88
2021/04/06 02:48:12;;;;;;;3.85;2.00;;;-0.10;99.90;;;;;;4866515;29;87059;-88
2021/04/06 02:50:42;;;;;;;4.10;2.13;;;-0.10;99.90;;;;;;4868542;29;87562;-88
2021/04/06 02:53:10;;;;;;;3.58;2.15;;;-0.40;99.90;;;;;;4868812;29;87914;-88
2021/04/06 02:55:38;;;;;;;3.55;1.80;;;-0.40;99.90;;;;;;4869527;29;86995;-88
2021/04/06 02:58:13;;;;;;;2.75;1.65;;;-0.50;99.90;;;;;;4838800;29;86824;-88
2021/04/06 03:00:41;;;;;;;4.20;2.25;;;-0.60;99.90;;;;;;4850816;29;88559;-88
2021/04/06 03:03:23;;;;;;;2.00;1.70;;;-0.70;99.90;;;;;;4834460;29;86976;-88
2021/04/06 03:06:04;;;;;;;3.63;1.98;;;-0.80;99.90;;;;;;4858275;29;86586;-88
2021/04/06 03:08:36;;;;;;;3.72;2.00;;;-0.80;99.90;;;;;;4869893;29;87002;-88
2021/04/06 03:11:11;;;;;;;2.30;1.98;;;-1.00;99.90;;;;;;4870375;29;86802;-88
2021/04/06 03:13:44;;;;;;;3.00;2.20;;;-1.00;99.90;;;;;;4869431;29;86301;-89
2021/04/06 03:16:11;;;;;;;3.42;1.80;;;-1.20;99.90;;;;;;4859521;28;86859;-89
2021/04/06 03:18:39;;;;;;;2.63;2.15;;;-1.20;99.90;;;;;;4857187;29;87222;-88
2021/04/06 03:21:10;;;;;;;3.55;2.10;;;-1.20;99.90;;;;;;4890575;28;86927;-89
2021/04/06 03:23:36;;;;;;;3.65;1.92;;;-1.20;99.90;;;;;;4874914;29;87606;-88
2021/04/06 03:26:04;;;;;;;4.28;2.00;;;-1.20;99.90;;;;;;4891482;28;86113;-88
2021/04/06 03:28:39;;;;;;;4.30;2.10;;;-1.10;99.90;;;;;;4860027;29;86595;-87
2021/04/06 03:31:13;;;;;;;4.82;2.22;;;-1.10;99.90;;;;;;4891860;28;87743;-89
2021/04/06 03:33:47;;;;;;;4.47;2.20;;;-1.00;99.90;;;;;;4891470;28;87536;-88
2021/04/06 03:36:30;;;;;;;4.93;2.25;;;-1.00;99.90;;;;;;4876287;28;86099;-88
2021/04/06 03:38:59;;;;;;;4.22;2.30;;;-1.00;99.90;;;;;;4874348;29;86987;-88
2021/04/06 03:41:27;;;;;;;4.15;2.03;;;-1.00;99.90;;;;;;4874418;29;87401;-88
2021/04/06 03:44:10;;;;;;;3.60;2.35;;;-0.80;99.90;;;;;;4873265;29;87731;-88
2021/04/06 03:46:37;;;;;;;5.22;2.70;;;-0.70;99.90;;;;;;4885894;28;86881;-90
2021/04/06 03:49:21;;;;;;;5.15;2.85;;;-0.80;99.90;;;;;;4882870;28;86258;-88
2021/04/06 03:52:07;;;;;;;6.30;2.65;;;-0.60;99.90;;;;;;4887721;28;88840;-88
2021/04/06 03:54:48;;;;;;;5.57;2.80;;;-0.50;99.90;;;;;;4873131;28;87359;-89
2021/04/06 03:57:22;;;;;;;4.03;2.30;;;-0.40;99.90;;;;;;4872279;28;86363;-89
2021/04/06 03:59:48;;;;;;;4.13;2.30;;;;;;;;;;4872311;28;86273;-88
2021/04/06 04:02:14;;;;;;;5.80;2.55;;;;;;;;;;4874295;28;87003;-89
2021/04/06 04:04:43;;;;;;;3.70;2.63;;;-0.20;99.90;;;;;;4855594;29;90129;-90
2021/04/06 04:07:12;;;;;;;6.50;2.53;;;-0.10;99.90;;;;;;4856039;29;86858;-90
2021/04/06 04:09:38;;;;;;;4.72;2.80;;;;;;;;;;4843206;29;87076;-89
2021/04/06 04:12:06;;;;;;;3.75;2.47;;;0.00;99.90;;;;;;4833179;29;89417;-88
2021/04/06 04:14:32;;;;;;;2.92;2.25;;;;;;;;;;4842420;29;88652;-89
2021/04/06 04:16:59;;;;;;;4.57;2.53;;;0.10;99.90;;;;;;4851334;29;86664;-89
2021/04/06 04:19:25;;;;;;;3.35;2.00;;;;;;;;;;4833814;29;86593;-89
2021/04/06 04:21:51;;;;;;;2.75;2.22;;;;;;;;;;4850330;29;88212;-89
2021/04/06 04:24:17;;;;;;;2.53;2.13;;;;;;;;;;4850067;29;87683;-89
2021/04/06 04:26:43;;;;;;;6.30;2.55;;;;;;;;;;4853746;29;86320;-89
2021/04/06 04:29:11;;;;;;;5.50;2.30;;;;;;;;;;4853465;29;87038;-89
2021/04/06 04:31:37;;;;;;;5.50;2.70;;;;;;;;;;4836095;29;88191;-89
2021/04/06 04:34:03;;;;;;;4.40;2.40;;;;;;;;;;4852667;29;87813;-89
2021/04/06 04:36:29;;;;;;;3.50;2.50;;;;;;;;;;4853362;29;86876;-89
2021/04/06 04:38:55;;;;;;;4.32;2.28;;;;;;;;;;4836286;29;87070;-89
2021/04/06 04:41:21;;;;;;;6.30;3.60;;;0.20;99.90;;;;;;4852973;29;87704;-89
2021/04/06 04:43:47;;;;;;;4.20;3.15;;;;;;;;;;4835513;29;89121;-89
2021/04/06 04:46:14;;;;;;;8.07;3.15;;;0.10;99.90;;;;;;4835426;29;86522;-90
2021/04/06 04:48:40;;;;;;;3.25;2.63;;;;;;;;;;4853313;29;87078;-89
2021/04/06 04:51:06;;;;;;;4.25;2.97;;;;;;;;;;4853354;29;87671;-90
2021/04/06 04:53:32;;;;;;;5.32;2.60;;;;;;;;;;4866951;29;88168;-89
2021/04/06 04:55:58;;;;;;;4.15;2.38;;;;;;;;;;4862201;29;86738;-89
2021/04/06 04:58:24;;;;;;;6.78;2.92;;;;;;;;;;4835610;29;87915;-90
2021/04/06 05:00:53;;;;;;;5.22;2.47;;;-0.10;99.90;;;;;;4842269;29;87363;-90
2021/04/06 05:03:19;;;;;;;5.38;3.03;;;;;;;;;;4853040;29;87484;-89
2021/04/06 05:05:45;;;;;;;4.75;3.47;;;;;;;;;;4851071;29;86931;-90
2021/04/06 05:08:11;;;;;;;4.63;3.38;;;;;;;;;;4833705;29;86989;-90
2021/04/06 05:10:37;;;;;;;5.25;3.30;;;;;;;;;;4839370;29;87415;-90
2021/04/06 05:13:03;;;;;;;12.30;3.70;;;;;;;;;;4852548;29;87105;-89
2021/04/06 05:15:30;;;;;;;12.43;4.03;;;;;;;;;;4852213;29;85847;-89
2021/04/06 05:17:56;;;;;;;6.57;4.18;;;;;;;;;;4834589;29;86599;-89
2021/04/06 05:20:23;;;;;;;4.07;3.30;;;;;;;;;;4825597;29;87614;-87
2021/04/06 05:22:49;;;;;;;6.93;3.53;;;-0.30;99.90;;;;;;4844457;29;87993;-89
2021/04/06 05:25:16;;;;;;;7.28;3.60;;;;;;;;;;4835349;29;86997;-88
2021/04/06 05:27:42;;;;;;;6.50;3.83;;;;;;;;;;4851695;29;86875;-88
2021/04/06 05:30:08;;;;;;;6.43;3.70;;;-0.20;99.90;;;;;;4852216;29;87487;-87
2021/04/06 05:32:34;;;;;;;5.82;3.25;;;;;;;;;;4845916;29;86831;-87
2021/04/06 05:35:01;;;;;;;7.55;3.60;;;0.00;99.90;;;;;;4850360;29;86149;-89
2021/04/06 05:37:27;;;;;;;4.53;3.33;;;;;;;;;;4852069;29;86919;-87
2021/04/06 05:40:00;;;;;;;7.30;3.53;;;0.20;99.90;;;;;;4851264;29;86776;-89
2021/04/06 05:42:26;;;;;;;5.10;3.20;;;;;;;;;;4852244;29;87433;-89
2021/04/06 05:44:56;;;;;;;8.23;3.97;;;0.40;99.90;;;;;;4851155;29;86910;-89
2021/04/06 05:47:36;;;;;;;8.30;3.28;;;0.50;99.90;;;;;;4833258;29;87941;-89
2021/04/06 05:50:05;;;;;;;3.33;3.03;;;0.60;99.90;;;;;;4833271;29;88247;-89
2021/04/06 05:52:31;;;;;;;5.50;3.58;;;;;;;;;;4839273;29;87960;-90
2021/04/06 05:55:01;;;;;;;4.13;3.40;;;0.80;99.90;;;;;;4836347;29;86786;-90
2021/04/06 05:57:27;;;;;;;5.75;3.58;;;;;;;;;;4853265;29;86343;-91
2021/04/06 05:59:54;;;;;;;5.47;2.97;;;;;;;;;;4852489;29;87705;-90
2021/04/06 06:02:25;;;;;;;6.10;3.05;;;1.10;99.90;;;;;;4819930;29;87790;-88
2021/04/06 06:04:51;;;;;;;4.90;3.07;;;1.10;99.90;;;;;;4831361;29;85702;-88
2021/04/06 06:07:17;;;;;;;7.32;3.17;;;;;;;;;;4831052;29;86974;-88
2021/04/06 06:09:43;;;;;;;3.22;2.80;;;;;;;;;;4849033;29;86517;-88
2021/04/06 06:12:09;;;;;;;7.13;3.15;;;1.80;99.90;;;;;;4831033;29;88704;-87
2021/04/06 06:14:35;;;;;;;5.78;2.80;;;;;;;;;;4851396;29;86943;-89
2021/04/06 06:17:18;;;;;;;3.72;2.78;;;2.30;99.90;;;;;;4841780;29;86848;-89
2021/04/06 06:19:46;;;;;;;4.85;3.13;;;2.30;99.90;;;;;;4851411;29;87699;-89
2021/04/06 06:22:26;;;;;;;4.68;2.85;;;2.60;99.90;;;;;;4819680;29;89187;-89
2021/04/06 06:25:04;;;;;;;3.10;2.85;;;2.50;99.90;;;;;;4835440;29;87028;-90
2021/04/06 06:27:37;;;;;;;4.82;3.53;;;2.50;99.90;;;;;;4854895;29;86987;-90
2021/04/06 06:30:32;;;;;;;7.45;3.55;;;2.50;99.90;;;;;;4851868;29;86828;-89
2021/04/06 06:33:23;;;;;;;5.93;3.85;;;2.30;99.90;;;;;;4829676;29;88361;-90
2021/04/06 06:35:53;;;;;;;7.35;4.05;;;2.40;99.90;;;;;;4834508;29;86939;-89
2021/04/06 06:38:30;;;;;;;6.07;3.60;;;2.80;99.90;;;;;;4844549;29;88030;-90
2021/04/06 06:41:16;;;;;;;4.90;3.20;;;2.80;99.90;;;;;;4850880;29;87459;-90
2021/04/06 06:43:51;;;;;;;6.47;2.97;;;3.60;99.90;;;;;;4834705;29;87937;-91
2021/04/06 06:46:22;;;;;;;4.43;2.90;;;3.50;99.90;;;;;;4829953;29;86902;-90
2021/04/06 06:48:54;;;;;;;5.05;2.95;;;4.10;99.90;;;;;;4846477;29;86952;-91
2021/04/06 06:51:20;;;;;;;4.18;3.28;;;;;;;;;;4832930;29;87001;-91
2021/04/06 06:53:46;;;;;;;9.32;3.63;;;;;;;;;;4844081;29;87391;-91
2021/04/06 06:56:12;;;;;;;4.68;3.10;;;5.60;91.70;;;;;;4833752;29;86193;-91
2021/04/06 06:58:43;;;;;;;4.43;3.53;;;5.50;91.90;;;;;;4831680;29;87427;-91
2021/04/06 07:01:24;;;;;;;3.63;3.17;;;5.50;92.80;;;;;;4830526;29;87790;-91
2021/04/06 07:04:12;;;;;;;8.73;3.42;;;5.50;92.40;;;;;;4829322;29;87442;-91
2021/04/06 07:06:46;;;;;;;7.32;3.53;;;5.30;91.50;;;;;;4835974;29;86649;-90
2021/04/06 07:09:30;;;;;;;5.60;3.25;;;5.00;92.20;;;;;;4819339;29;86891;-89
2021/04/06 07:12:05;;;;;;;3.92;2.97;;;4.60;91.20;;;;;;4831933;29;87488;-91
2021/04/06 07:14:32;;;;;;;3.00;2.70;;;4.20;91.50;;;;;;4831835;29;88342;-91
2021/04/06 07:17:03;;;;;;;3.95;2.78;;;4.10;91.20;;;;;;4831187;29;86542;-90
2021/04/06 07:19:41;;;;;;;4.38;2.90;;;4.00;92.20;;;;;;4832790;29;86984;-91
2021/04/06 07:22:11;;;;;;;5.68;2.75;;;5.20;92.60;;;;;;4832664;29;87106;-90
2021/04/06 07:24:38;;;;;;;5.32;3.42;;;7.60;90.10;;;;;;4823007;29;87095;-91
2021/04/06 07:27:10;;;;;;;3.47;3.00;;;7.50;90.10;;;;;;4831287;29;86337;-91
2021/04/06 07:29:41;;;;;;;3.65;2.92;;;9.80;77.30;;;;;;4830261;29;87861;-91
2021/04/06 07:32:13;;;;;;;4.47;2.63;;;11.20;66.70;;;;;;4827273;29;92485;-91
2021/04/06 07:34:43;;;;;;;5.55;2.63;;;11.60;57.60;;;;;;4827165;29;87869;-91
2021/04/06 07:37:09;;;;;;;4.75;2.90;;;;;;;;;;4832611;29;86280;-91
2021/04/06 07:39:37;;;;;;;3.65;2.80;;;13.90;54.50;;;;;;4832572;29;86923;-91
2021/04/06 07:42:03;;;;;;;3.67;2.50;;;15.00;47.30;;;;;;4832960;29;89949;-92
2021/04/06 07:44:35;;;;;;;5.40;2.60;;;14.90;47.80;;;;;;4831360;29;90738;-92
2021/04/06 07:47:01;;;;;;;3.83;2.17;;;;;;;;;;4850863;29;86192;-91
2021/04/06 07:49:27;;;;;;;4.18;3.10;;;17.60;41.90;;;;;;4821554;29;87157;-92
2021/04/06 07:51:55;;;;;;;4.47;3.03;;;18.00;39.30;;;;;;4830031;29;90263;-91
2021/04/06 07:54:43;;;;;;;5.43;3.40;;;19.20;38.70;;;;;;4829082;29;87864;-92
2021/04/06 07:57:09;;;;;;;3.72;2.63;;;19.80;38.30;;;;;;4842806;29;87285;-92
2021/04/06 07:59:43;;;;;;;4.90;3.13;;;20.30;35.50;;;;;;4838757;29;87078;-91
2021/04/06 08:02:09;;;;;;;3.55;3.00;;;20.50;34.90;;;;;;4830930;29;87197;-91
2021/04/06 08:04:38;;;;;;;5.18;2.90;;;18.90;34.30;;;;;;4824718;29;87140;-91
2021/04/06 08:07:22;;;;;;;4.53;3.20;;;17.20;36.80;;;;;;4826091;29;86859;-91
2021/04/06 08:09:55;;;;;;;3.28;2.90;;;17.40;36.90;;;;;;4811786;29;87016;-91
2021/04/06 08:12:35;;;;;;;5.25;4.75;;;18.90;35.60;;;;;;4828014;29;86926;-91
2021/04/06 08:15:01;;;;;;;3.72;2.90;;;;;;;;;;4821254;29;89272;-91
2021/04/06 08:17:33;;;;;;;2.70;2.50;;;20.50;33.80;;;;;;4828977;29;86961;-91
2021/04/06 08:20:05;;;;;;;5.75;4.45;;;23.20;30.40;;;;;;4831828;29;87839;-91
2021/04/06 08:22:52;;;;;;;3.80;2.90;;;23.30;29.80;;;;;;4826927;29;87697;-91
2021/04/06 08:25:18;;;;;;;4.00;2.45;;;24.90;29.00;;;;;;4828830;29;88306;-91
2021/04/06 08:27:49;;;;;;;4.40;4.00;;;26.80;26.80;;;;;;4828123;29;87085;-92
2021/04/06 08:30:27;;;;;;;4.30;4.00;;;26.00;26.70;;;;;;4830685;29;86828;-90
2021/04/06 08:32:59;;;;;;;4.35;3.95;;;22.90;26.80;;;;;;4828460;29;89153;-92
2021/04/06 08:35:44;;;;;;;3.90;2.95;;;22.70;27.20;;;;;;4829746;29;86926;-90
2021/04/06 08:38:25;;;;;;;5.00;4.50;;;20.00;30.30;;;;;;4829682;29;86139;-91
2021/04/06 08:40:59;;;;;;;4.07;3.10;;;20.00;30.60;;;;;;4831377;29;87012;-92
2021/04/06 08:43:47;;;;;;;5.00;2.70;;;19.40;29.90;;;;;;4821259;29;87961;-91
2021/04/06 08:46:42;;;;;;;4.68;2.90;;;17.40;32.30;;;;;;4832467;29;87911;-92
2021/04/06 08:49:28;;;;;;;4.93;3.13;;;15.10;35.60;;;;;;4832628;29;86815;-91
2021/04/06 08:51:55;;;;;;;5.72;4.35;;;15.80;36.20;;;;;;4830721;29;86882;-91
2021/04/06 08:54:25;;;;;;;6.88;2.67;;;15.80;36.60;;;;;;4831301;29;88893;-91
2021/04/06 08:57:08;;;;;;;5.93;3.97;;;21.20;30.90;;;;;;4848110;29;87212;-90
2021/04/06 08:59:39;;;;;;;4.00;3.70;;;22.90;28.00;;;;;;4830795;29;86993;-91
2021/04/06 09:02:17;;;;;;;4.78;2.70;;;22.90;28.10;;;;;;4830243;29;86540;-91
2021/04/06 09:04:48;;;;;;;4.30;1.80;;;21.30;27.40;;;;;;4831692;29;87284;-91
2021/04/06 09:07:22;;;;;;;2.00;1.80;;;19.40;27.60;;;;;;4831528;29;89152;-92
2021/04/06 09:09:53;;;;;;;4.47;1.98;;;17.50;28.60;;;;;;4848867;29;86952;-90
2021/04/06 09:12:19;;;;;;;3.67;2.25;;;16.80;30.80;;;;;;4851292;29;88147;-90
2021/04/06 09:14:45;;;;;;;7.43;3.60;;;16.70;31.60;;;;;;4834438;29;88916;-91
2021/04/06 09:17:11;;;;;;;3.20;2.22;;;17.10;31.90;;;;;;4833813;29;88970;-90
2021/04/06 09:19:55;;;;;;;2.45;2.00;;;17.40;31.40;;;;;;4850369;29;86765;-91
2021/04/06 09:22:21;;;;;;;2.92;2.05;;;18.10;30.90;;;;;;4835954;29;86977;-90
2021/04/06 09:24:47;;;;;;;3.33;3.13;;;19.90;28.30;;;;;;4843808;29;87505;-90
2021/04/06 09:27:13;;;;;;;3.30;3.10;;;;;;;;;;4841464;29;88013;-90
2021/04/06 09:29:42;;;;;;;1.70;1.60;;;22.00;26.10;;;;;;4851287;29;86041;-91
2021/04/06 09:32:14;;;;;;;3.40;3.10;;;24.30;25.20;;;;;;4835896;29;87242;-91
2021/04/06 09:34:42;;;;;;;4.53;3.70;;;26.30;25.10;;;;;;4835190;29;89954;-90
2021/04/06 09:37:18;;;;;;;4.80;4.20;;;25.50;25.00;;;;;;4849835;29;88998;-88
2021/04/06 09:39:48;;;;;;;4.43;4.13;;;24.20;25.70;;;;;;4834362;29;87102;-91
2021/04/06 09:42:14;;;;;;;;;;;24.50;26.20;;;;;;4851174;29;87044;-91
2021/04/06 09:44:42;;;;;;;3.55;2.60;;;24.00;25.10;;;;;;4852016;29;87650;-90
2021/04/06 09:47:21;;;;;;;3.42;2.80;;;21.50;27.00;;;;;;4849413;29;89691;-91
2021/04/06 09:49:52;;;;;;;4.65;3.50;;;17.90;30.10;;;;;;4832582;29;86937;-90
2021/04/06 09:52:25;;;;;;;4.30;3.40;;;18.30;30.60;;;;;;4829819;29;87146;-90
2021/04/06 09:55:03;;;;;;;3.40;3.10;;;19.20;30.60;;;;;;4860290;29;87444;-90
2021/04/06 09:57:41;;;;;;;3.05;2.85;;;19.30;28.70;;;;;;4872561;28;88748;-89
2021/04/06 10:00:11;;;;;;;2.90;2.70;;;18.60;27.70;;;;;;4857861;29;86508;-89
2021/04/06 10:02:42;;;;;;;2.33;1.60;;;17.20;28.50;;;;;;4869506;29;87160;-88
2021/04/06 10:05:23;;;;;;;3.22;3.00;;;15.90;29.20;;;;;;4847770;29;89257;-90
2021/04/06 10:07:49;;;;;;;3.38;1.58;;;16.10;29.00;;;;;;4840740;29;88850;-90
2021/04/06 10:10:23;;;;;;;2.42;1.80;;;16.90;29.00;;;;;;4847958;29;86949;-90
2021/04/06 10:12:51;;;;;;;3.25;2.78;;;17.10;29.80;;;;;;4832126;29;86936;-89
2021/04/06 10:15:26;;;;;;;2.33;1.63;;;17.10;28.60;;;;;;4839300;29;87469;-89
2021/04/06 10:17:54;;;;;;;3.20;2.90;;;17.20;29.60;;;;;;4855054;29;87469;-89
2021/04/06 10:20:25;;;;;;;2.83;2.63;;;17.50;28.90;;;;;;4842690;29;86342;-91
2021/04/06 10:22:51;;;;;;;3.00;2.75;;;17.30;29.10;;;;;;4837871;29;88269;-90
2021/04/06 10:25:33;;;;;;;3.60;3.40;;;16.30;28.40;;;;;;4840342;29;88071;-90
2021/04/06 10:28:01;;;;;;;2.33;1.60;;;16.30;28.80;;;;;;4832241;29;88279;-89
2021/04/06 10:30:41;;;;;;;1.70;1.60;;;15.50;29.80;;;;;;4823269;29;87078;-91
2021/04/06 10:33:19;;;;;;;3.20;3.00;;;14.60;29.10;;;;;;4838639;29;88249;-88
2021/04/06 10:35:55;;;;;;;1.77;1.33;;;14.70;29.70;;;;;;4841137;29;87722;-89
2021/04/06 10:38:34;;;;;;;2.80;1.63;;;13.50;32.10;;;;;;4840750;29;88393;-90
2021/04/06 10:40:59;;;;;;;3.50;3.30;;;13.40;32.70;;;;;;4840288;29;87147;-90
2021/04/06 10:43:26;;;;;;;2.10;1.48;;;12.60;33.80;;;;;;4840282;29;87532;-90
2021/04/06 10:46:04;;;;;;;3.70;1.90;;;12.10;34.00;;;;;;4839179;29;87314;-90
2021/04/06 10:48:34;;;;;;;2.85;1.80;;;11.80;35.90;;;;;;4845884;29;87707;-90
2021/04/06 10:51:23;;;;;;;2.45;1.88;;;11.30;37.60;;;;;;4828431;29;87112;-91
2021/04/06 10:53:56;;;;;;;2.13;1.80;;;11.10;35.90;;;;;;4839873;29;88431;-90
2021/04/06 10:56:28;;;;;;;3.95;1.88;;;10.90;36.60;;;;;;4841948;29;87945;-90
2021/04/06 10:58:57;;;;;;;1.70;1.60;;;11.40;35.30;;;;;;4841178;29;88501;-87
2021/04/06 11:01:27;;;;;;;2.45;1.90;;;11.50;35.50;;;;;;4843605;29;86272;-93
2021/04/06 11:03:55;;;;;;;3.20;2.90;;;11.40;35.80;;;;;;4824599;29;87389;-92
2021/04/06 11:06:42;;;;;;;3.08;2.83;;;11.40;36.80;;;;;;4824763;29;88111;-88
2021/04/06 11:09:14;;;;;;;2.00;1.80;;;11.40;37.60;;;;;;4823690;29;88932;-92
2021/04/06 11:11:41;;;;;;;3.17;2.85;;;11.30;34.60;;;;;;4824962;29;86719;-91
2021/04/06 11:14:10;;;;;;;3.10;1.52;;;11.30;35.10;;;;;;4840730;29;87096;-88
2021/04/06 11:16:38;;;;;;;1.70;1.52;;;11.40;35.10;;;;;;4842513;29;87089;-90
2021/04/06 11:19:14;;;;;;;1.98;1.70;;;11.20;35.30;;;;;;4819716;29;89240;-89
2021/04/06 11:21:52;;;;;;;2.95;2.67;;;10.40;34.50;;;;;;4836218;29;87052;-89
2021/04/06 11:24:20;;;;;;;2.17;1.67;;;10.10;37.20;;;;;;4849466;29;86996;-88
2021/04/06 11:26:47;;;;;;;2.78;1.77;;;;;;;;;;4832158;29;88092;-88
2021/04/06 11:29:14;;;;;;;3.35;3.05;;;10.20;37.20;;;;;;4846992;29;87406;-88
2021/04/06 11:31:45;;;;;;;2.92;1.50;;;10.60;37.60;;;;;;4851534;29;86931;-88
2021/04/06 11:34:12;;;;;;;2.28;1.63;;;10.50;38.10;;;;;;4850180;29;86703;-88
2021/04/06 11:36:39;;;;;;;2.38;1.45;;;10.70;37.30;;;;;;4847382;29;86696;-88
2021/04/06 11:39:08;;;;;;;2.90;1.90;;;10.50;36.70;;;;;;4857966;29;86894;-89
2021/04/06 11:41:34;;;;;;;4.15;1.73;;;10.40;36.20;;;;;;4852881;29;87047;-88
2021/04/06 11:44:01;;;;;;;2.17;1.42;;;;;;;;;;4840080;29;87955;-88
2021/04/06 11:46:27;;;;;;;5.55;1.92;;;10.10;36.40;;;;;;4840544;29;88151;-89
2021/04/06 11:48:53;;;;;;;2.30;1.55;;;10.00;37.80;;;;;;4856202;29;88345;-88
2021/04/06 11:51:19;;;;;;;2.80;1.48;;;9.90;37.90;;;;;;4861693;29;86901;-89
2021/04/06 11:53:46;;;;;;;2.33;1.27;;;9.70;38.10;;;;;;4858783;29;86700;-89
2021/04/06 11:56:12;;;;;;;3.20;2.90;;;;;;;;;;4865745;29;87684;-89
2021/04/06 11:58:57;;;;;;;3.28;1.42;;;9.40;39.10;;;;;;4838734;29;88912;-90
2021/04/06 12:01:23;;;;;;;2.10;1.42;;;;;;;;;;4838609;29;85705;-90
2021/04/06 12:03:49;;;;;;;1.88;1.60;;;12.30;36.60;;;;;;4819105;29;87066;-86
2021/04/06 12:06:28;;;;;;;1.80;1.70;;;13.80;34.40;;;;;;4848873;29;87760;-88
2021/04/06 12:08:54;;;;;;;2.17;1.63;;;14.50;31.60;;;;;;4831106;29;88409;-87
2021/04/06 12:11:20;;;;;;;2.03;1.60;;;15.40;32.80;;;;;;4850667;29;86781;-88
2021/04/06 12:13:47;;;;;;;5.03;1.85;;;16.40;31.50;;;;;;4846538;29;86866;-87
2021/04/06 12:16:14;;;;;;;2.22;1.80;;;15.30;31.40;;;;;;4848966;29;88612;-88
2021/04/06 12:18:39;;;;;;;2.55;1.60;;;14.00;32.30;;;;;;4848793;29;88558;-88
2021/04/06 12:21:08;;;;;;;2.90;1.60;;;13.00;33.10;;;;;;4831971;29;86964;-90
2021/04/06 12:23:35;;;;;;;2.92;1.63;;;11.70;36.60;;;;;;4834341;29;86931;-86
2021/04/06 12:26:01;;;;;;;3.60;1.60;;;11.20;35.90;;;;;;4817280;29;86655;-86
2021/04/06 12:28:27;;;;;;;2.50;1.90;;;10.90;37.50;;;;;;4833641;29;89112;-86
2021/04/06 12:30:53;;;;;;;1.77;1.63;;;;;;;;;;4851851;29;86230;-88
2021/04/06 12:33:19;;;;;;;1.67;1.58;;;11.40;36.10;;;;;;4832008;29;87658;-88
2021/04/06 12:35:44;;;;;;;2.40;1.77;;;11.50;36.40;;;;;;4857297;29;88161;-88
2021/04/06 12:38:10;;;;;;;4.32;2.05;;;11.80;36.10;;;;;;4851634;29;88362;-88
2021/04/06 12:40:37;;;;;;;2.75;1.75;;;11.90;36.50;;;;;;4834623;29;86686;-90
2021/04/06 12:43:02;;;;;;;2.65;2.13;;;11.80;36.70;;;;;;4851114;29;86863;-89
2021/04/06 12:45:28;;;;;;;1.70;1.40;;;11.50;36.10;;;;;;4833809;29;89686;-87
2021/04/06 12:47:55;;;;;;;2.38;1.80;;;11.50;36.60;;;;;;4853628;29;86776;-88
2021/04/06 12:50:29;;;;;;;2.90;2.13;;;10.80;37.40;;;;;;4838142;29;86062;-89
2021/04/06 12:52:55;;;;;;;4.35;3.10;;;;;;;;;;4834226;29;86861;-87
2021/04/06 12:55:21;;;;;;;4.95;2.05;;;;;;;;;;4841337;29;87844;-88
2021/04/06 12:57:48;;;;;;;2.03;1.80;;;8.30;46.40;;;;;;4854789;29;87801;-89
2021/04/06 13:00:16;;;;;;;3.28;1.70;;;8.20;46.90;;;;;;4868489;29;86520;-90
2021/04/06 13:02:42;;;;;;;2.08;1.83;;;;;;;;;;4839544;29;86926;-91
2021/04/06 13:05:08;;;;;;;2.67;1.95;;;;;;;;;;4839638;29;89255;-90
2021/04/06 13:07:34;;;;;;;3.53;2.00;;;;;;;;;;4852302;29;90455;-89
2021/04/06 13:10:00;;;;;;;3.85;2.20;;;;;;;;;;4838060;29;86899;-88
2021/04/06 13:12:27;;;;;;;3.55;2.10;;;;;;;;;;4838244;29;87358;-87
2021/04/06 13:14:53;;;;;;;3.33;3.00;;;;;;;;;;4837566;29;87543;-88
2021/04/06 13:17:19;;;;;;;3.35;1.90;;;;;;;;;;4837294;29;87313;-90
2021/04/06 13:20:22;;;;;;;2.17;1.98;;;8.00;52.60;;;;;;4839714;29;86382;-91
2021/04/06 13:22:57;;;;;;;3.25;2.75;;;;;;;;;;4856011;29;88238;-91
2021/04/06 13:25:23;;;;;;;3.40;3.10;;;;;;;;;;4853599;29;90486;-91
2021/04/06 13:27:58;;;;;;;3.47;2.20;;;6.40;68.10;;;;;;4855614;29;87270;-90
2021/04/06 13:30:25;;;;;;;5.90;2.28;;;6.40;69.60;;;;;;4856433;29;86941;-92
2021/04/06 13:32:51;;;;;;;3.25;2.40;;;6.10;74.00;;;;;;4848138;29;86582;-90
2021/04/06 13:35:17;;;;;;;4.95;2.00;;;6.10;74.50;;;;;;4851869;29;88074;-88
2021/04/06 13:37:43;;;;;;;4.10;2.38;;;5.90;77.60;;;;;;4861810;29;88457;-88
2021/04/06 13:40:11;;;;;;;4.53;2.50;;;5.60;79.60;;;;;;4853357;29;86133;-89
2021/04/06 13:42:37;;;;;;;3.50;2.42;;;5.60;85.70;;;;;;4852500;29;86931;-87
2021/04/06 13:45:06;;;;;;;3.45;2.70;;;5.50;86.30;;;;;;4851493;29;87706;-88
2021/04/06 13:47:32;;;;;;;3.78;2.50;;;5.50;86.90;;;;;;4849447;29;88467;-87
2021/04/06 13:49:58;;;;;;;4.70;3.47;;;5.30;90.20;;;;;;4834330;29;86871;-87
2021/04/06 13:52:24;;;;;;;4.03;2.30;;;5.30;91.70;;;;;;4847606;29;86924;-86
2021/04/06 13:54:50;;;;;;;4.57;2.45;;;5.40;91.50;;;;;;4852153;29;89326;-87
2021/04/06 13:57:16;;;;;;;5.18;3.70;;;6.00;95.20;;;;;;4850989;29;87339;-86
2021/04/06 13:59:41;;;;;;;4.85;2.25;;;5.60;92.70;;;;;;4851699;29;86956;-86
2021/04/06 14:02:08;;;;;;;3.80;2.63;;;5.70;91.90;;;;;;4850532;29;86759;-86
2021/04/06 14:04:34;;;;;;;4.38;2.67;;;5.70;90.90;;;;;;4817644;29;88267;-87
2021/04/06 14:07:00;;;;;;;4.88;3.97;;;;;;;;;;4834406;29;86867;-89
2021/04/06 14:09:25;;;;;;;3.80;2.72;;;5.70;91.10;;;;;;4834584;29;86932;-86
2021/04/06 14:11:51;;;;;;;4.90;2.90;;;5.60;91.20;;;;;;4843465;29;87899;-86
2021/04/06 14:14:18;;;;;;;4.82;3.10;;;5.40;91.70;;;;;;4859771;29;89310;-87
2021/04/06 14:16:44;;;;;;;4.40;2.70;;;5.10;93.20;;;;;;4850975;29;87967;-86
2021/04/06 14:19:10;;;;;;;4.35;2.85;;;4.80;95.30;;;;;;4844295;29;87019;-86
2021/04/06 14:21:38;;;;;;;6.38;2.60;;;4.50;97.50;;;;;;4833597;29;86992;-86
2021/04/06 14:24:04;;;;;;;7.07;3.85;;;4.10;98.20;;;;;;4822775;29;89003;-87
2021/04/06 14:26:31;;;;;;;3.97;2.78;;;4.00;99.90;;;;;;4851051;29;87152;-86
2021/04/06 14:28:57;;;;;;;5.22;2.88;;;4.00;99.90;;;;;;4852733;29;86206;-86
2021/04/06 14:31:25;;;;;;;7.93;3.47;;;3.90;99.90;;;;;;4851477;29;86988;-87
2021/04/06 14:33:52;;;;;;;3.83;2.47;;;3.90;99.90;;;;;;4831082;29;88173;-87
2021/04/06 14:36:18;;;;;;;6.13;2.50;;;3.80;99.90;;;;;;4841396;29;88622;-86
2021/04/06 14:38:44;;;;;;;5.88;2.40;;;4.00;99.90;;;;;;4833557;29;87282;-86
2021/04/06 14:41:10;;;;;;;5.70;2.85;;;4.50;99.90;;;;;;4844803;29;86976;-86
2021/04/06 14:43:37;;;;;;;3.38;2.25;;;5.20;99.90;;;;;;4850147;29;87729;-86
2021/04/06 14:46:09;;;;;;;4.43;2.38;;;5.80;99.70;;;;;;4849463;29;87590;-87
2021/04/06 14:48:40;;;;;;;3.00;1.77;;;6.60;97.00;;;;;;4850568;29;87538;-87
2021/04/06 14:51:07;;;;;;;3.10;1.80;;;7.30;93.40;;;;;;4850240;29;87117;-88
2021/04/06 14:53:35;;;;;;;3.55;2.00;;;7.80;86.80;;;;;;4850787;29;86536;-88
2021/04/06 14:56:01;;;;;;;4.18;2.13;;;;;;;;;;4860330;29;87366;-88
2021/04/06 14:58:30;;;;;;;4.07;2.25;;;7.60;90.50;;;;;;4869337;29;86743;-88
2021/04/06 15:00:57;;;;;;;4.47;2.40;;;7.70;89.90;;;;;;4868352;29;87886;-88
2021/04/06 15:03:24;;;;;;;2.70;1.77;;;7.60;87.30;;;;;;4868845;29;87087;-88
2021/04/06 15:05:50;;;;;;;2.80;2.00;;;7.80;88.60;;;;;;4851497;29;86850;-88
2021/04/06 15:08:21;;;;;;;4.28;3.10;;;7.60;85.90;;;;;;4849060;29;86935;-88
2021/04/06 15:10:48;;;;;;;3.72;2.35;;;7.30;88.90;;;;;;4849309;29;87041;-88
2021/04/06 15:13:14;;;;;;;2.95;2.28;;;7.50;85.30;;;;;;4850582;29;87728;-88
2021/04/06 15:15:41;;;;;;;2.85;2.30;;;7.20;85.80;;;;;;4853879;29;87615;-90
2021/04/06 15:18:08;;;;;;;2.17;1.90;;;;;;;;;;4836456;29;86211;-88
2021/04/06 15:20:34;;;;;;;5.10;2.28;;;;;;;;;;4835612;29;86590;-91
2021/04/06 15:23:05;;;;;;;4.75;2.60;;;;;;;;;;4834339;29;90160;-90
2021/04/06 15:25:36;;;;;;;9.63;4.03;;;7.10;89.40;;;;;;4833342;29;88858;-90
2021/04/06 15:28:04;;;;;;;3.58;2.28;;;7.10;89.60;;;;;;4850549;29;86962;-87
2021/04/06 15:30:30;;;;;;;4.28;2.63;;;;;;;;;;4857427;29;86882;-89
2021/04/06 15:32:58;;;;;;;7.22;3.33;;;7.00;79.90;;;;;;4849644;29;87114;-89
2021/04/06 15:35:29;;;;;;;3.03;2.00;;;6.50;81.00;;;;;;4850537;29;86918;-89
2021/04/06 15:37:56;;;;;;;5.07;2.38;;;6.50;81.60;;;;;;4815291;29;87044;-89
2021/04/06 15:40:22;;;;;;;8.38;4.32;;;6.60;81.60;;;;;;4835469;29;86781;-90
2021/04/06 15:42:49;;;;;;;3.60;2.05;;;6.70;84.00;;;;;;4841872;29;87206;-90
2021/04/06 15:45:16;;;;;;;5.45;2.60;;;6.50;81.40;;;;;;4849937;29;86875;-88
2021/04/06 15:47:42;;;;;;;3.08;2.10;;;6.30;83.40;;;;;;4841491;29;87060;-88
2021/04/06 15:50:20;;;;;;;11.55;4.68;;;6.10;84.00;;;;;;4849241;29;88090;-88
2021/04/06 15:52:47;;;;;;;7.03;2.42;;;5.80;87.00;;;;;;4844275;29;87618;-89
2021/04/06 15:55:14;;;;;;;4.70;2.45;;;5.30;87.50;;;;;;4832860;29;89881;-89
2021/04/06 15:57:42;;;;;;;3.30;2.40;;;5.00;88.90;;;;;;4848104;29;87339;-91
2021/04/06 16:00:09;;;;;;;5.68;2.20;;;4.70;91.60;;;;;;4832678;29;86367;-89
2021/04/06 16:02:39;;;;;;;2.63;2.42;;;4.40;93.40;;;;;;4829505;29;89147;-88
2021/04/06 16:05:06;;;;;;;2.88;1.92;;;4.10;95.40;;;;;;4852488;29;86729;-91
2021/04/06 16:07:33;;;;;;;2.63;1.80;;;3.90;96.40;;;;;;4849726;29;86168;-89
2021/04/06 16:09:58;;;;;;;3.53;2.22;;;3.50;97.20;;;;;;4849184;29;86899;-89
2021/04/06 16:12:24;;;;;;;2.35;2.13;;;3.30;98.20;;;;;;4853054;29;87170;-88